createdAt,value
2023-05-10T00:00:39.341Z,96419.84
2023-05-10T00:05:32.827Z,96426.63
2023-05-10T00:10:27.567Z,96429.72
2023-05-10T00:15:20.929Z,96415.69
2023-05-10T00:20:14.596Z,96431.88
2023-05-10T00:25:10.450Z,96429.63
2023-05-10T00:30:06.343Z,96426.59
2023-05-10T00:34:59.763Z,96430.59
2023-05-10T00:39:53.191Z,96425.25
2023-05-10T00:44:47.620Z,96437.09
2023-05-10T00:49:43.412Z,96432.47
2023-05-10T00:54:36.985Z,96436.78
2023-05-10T00:59:31.746Z,96435.03
2023-05-10T01:04:26.654Z,96447.84
2023-05-10T01:09:22.276Z,96454.94
2023-05-10T01:14:18.373Z,96457.31
2023-05-10T01:19:21.216Z,96463.91
2023-05-10T01:25:09.210Z,96472.63
2023-05-10T01:30:36.620Z,96469.06
2023-05-10T01:35:40.593Z,96470.44
2023-05-10T01:40:45.069Z,96472.47
2023-05-10T01:45:49.366Z,96493.41
2023-05-10T01:50:48.549Z,96496.63
2023-05-10T01:55:48.832Z,96502.78
2023-05-10T02:00:46.669Z,96507.81
2023-05-10T02:05:42.437Z,96510.09
2023-05-10T02:10:38.055Z,96501.50
2023-05-10T02:15:33.374Z,96506.19
2023-05-10T02:20:28.270Z,96509.66
2023-05-10T02:25:24.321Z,96511.53
2023-05-10T02:30:21.168Z,96515.16
2023-05-10T02:35:16.205Z,96515.53
2023-05-10T02:40:12.529Z,96513.50
2023-05-10T02:45:13.894Z,96524.94
2023-05-10T02:50:10.059Z,96525.38
2023-05-10T02:55:07.310Z,96524.25
2023-05-10T03:00:01.279Z,96526.53
2023-05-10T03:04:54.616Z,96527.47
2023-05-10T03:09:49.442Z,96528.66
2023-05-10T03:14:55.470Z,96526.88
2023-05-10T03:19:56.392Z,96526.34
2023-05-10T03:24:53.368Z,96529.38
2023-05-10T03:29:48.778Z,96530.75
2023-05-10T03:34:44.794Z,96529.72
2023-05-10T03:39:39.152Z,96521.84
2023-05-10T03:44:34.345Z,96523.78
2023-05-10T03:49:27.723Z,96529.91
2023-05-10T03:54:21.251Z,96524.09
2023-05-10T03:59:14.553Z,96528.88
2023-05-10T04:04:09.219Z,96536.28
2023-05-10T04:09:05.133Z,96545.09
2023-05-10T04:13:58.505Z,96553.06
2023-05-10T04:18:51.882Z,96548.22
2023-05-10T04:23:46.683Z,96548.56
2023-05-10T04:28:39.963Z,96562.41
2023-05-10T04:33:33.988Z,96543.78
2023-05-10T04:38:28.008Z,96551.00
2023-05-10T04:43:22.705Z,96554.56
2023-05-10T04:48:16.037Z,96552.38
2023-05-10T04:53:09.272Z,96550.00
2023-05-10T04:58:02.563Z,96560.91
2023-05-10T05:02:57.267Z,96568.50
2023-05-10T05:07:50.684Z,96561.19
2023-05-10T05:12:44.025Z,96559.81
2023-05-10T05:17:37.637Z,96553.84
2023-05-10T05:22:32.350Z,96561.81
2023-05-10T05:27:27.278Z,96572.25
2023-05-10T05:32:20.593Z,96581.38
2023-05-10T05:37:16.524Z,96581.78
2023-05-10T05:42:11.865Z,96597.88
2023-05-10T05:47:05.374Z,96596.28
2023-05-10T05:52:02.223Z,96596.44
2023-05-10T05:56:59.250Z,96593.72
2023-05-10T06:01:55.156Z,96607.81
2023-05-10T06:06:48.662Z,96601.13
2023-05-10T06:11:41.973Z,96604.91
2023-05-10T06:16:35.318Z,96616.31
2023-05-10T06:21:30.034Z,96615.47
2023-05-10T06:26:23.324Z,96623.78
2023-05-10T06:31:17.108Z,96632.28
2023-05-10T06:36:10.609Z,96638.75
2023-05-10T06:41:05.535Z,96634.00
2023-05-10T06:45:59.121Z,96653.53
2023-05-10T06:50:52.427Z,96658.81
2023-05-10T06:55:45.994Z,96659.16
2023-05-10T07:00:41.754Z,96653.34
2023-05-10T07:05:35.474Z,96656.81
2023-05-10T07:10:29.011Z,96653.41
2023-05-10T07:15:22.687Z,96664.81
2023-05-10T07:20:17.692Z,96679.03
2023-05-10T07:25:11.771Z,96668.25
2023-05-10T07:30:06.128Z,96680.13
2023-05-10T07:34:59.440Z,96693.16
2023-05-10T07:39:54.093Z,96682.97
2023-05-10T07:44:48.175Z,96691.44
2023-05-10T07:49:41.807Z,96683.25
2023-05-10T07:54:35.148Z,96696.59
2023-05-10T07:59:29.833Z,96689.94
2023-05-10T08:04:23.314Z,96685.50
2023-05-10T08:09:16.631Z,96706.19
2023-05-10T08:14:09.971Z,96699.19
2023-05-10T08:19:04.716Z,96717.78
2023-05-10T08:23:58.769Z,96716.78
2023-05-10T08:28:52.051Z,96698.47
2023-05-10T08:33:45.742Z,96694.63
2023-05-10T08:38:41.616Z,96692.63
2023-05-10T08:43:38.297Z,96710.53
2023-05-10T08:48:34.581Z,96714.28
2023-05-10T08:53:32.951Z,96704.69
2023-05-10T08:58:28.408Z,96707.72
2023-05-10T09:03:21.834Z,96725.09
2023-05-10T09:08:17.340Z,96713.53
2023-05-10T09:13:13.010Z,96704.34
2023-05-10T09:18:08.058Z,96716.50
2023-05-10T09:23:01.393Z,96722.00
2023-05-10T09:27:55.116Z,96728.91
2023-05-10T09:32:53.338Z,96720.34
2023-05-10T09:37:50.783Z,96719.19
2023-05-10T09:42:53.932Z,96725.63
2023-05-10T09:47:48.115Z,96732.56
2023-05-10T09:52:52.065Z,96734.47
2023-05-10T09:57:45.577Z,96743.00
2023-05-10T10:02:38.950Z,96740.69
2023-05-10T10:07:32.624Z,96758.22
2023-05-10T10:12:27.822Z,96760.91
2023-05-10T10:17:23.716Z,96767.44
2023-05-10T10:22:17.062Z,96764.19
2023-05-10T10:27:30.258Z,96763.16
2023-05-10T10:32:34.999Z,96760.88
2023-05-10T10:37:47.351Z,96766.41
2023-05-10T10:42:50.890Z,96766.28
2023-05-10T10:47:44.944Z,96763.25
2023-05-10T10:52:40.284Z,96763.38
2023-05-10T10:57:49.516Z,96758.34
2023-05-10T11:02:49.720Z,96756.53
2023-05-10T11:07:55.738Z,96758.31
2023-05-10T11:13:01.913Z,96754.25
2023-05-10T11:17:56.033Z,96755.31
2023-05-10T11:22:53.557Z,96762.19
2023-05-10T11:27:49.675Z,96758.69
2023-05-10T11:32:44.837Z,96766.38
2023-05-10T11:37:40.232Z,96769.00
2023-05-10T11:42:34.532Z,96773.00
2023-05-10T11:47:27.917Z,96769.94
2023-05-10T11:52:22.753Z,96773.50
2023-05-10T11:57:16.082Z,96769.41
2023-05-10T12:02:09.542Z,96767.38
2023-05-10T12:07:03.230Z,96770.78
2023-05-10T12:11:59.281Z,96768.69
2023-05-10T12:16:53.403Z,96763.66
2023-05-10T12:21:47.016Z,96759.25
2023-05-10T12:26:40.352Z,96763.81
2023-05-10T12:31:35.175Z,96766.03
2023-05-10T12:36:28.848Z,96758.69
2023-05-10T12:41:22.298Z,96770.88
2023-05-10T12:46:19.619Z,96775.34
2023-05-10T12:51:16.718Z,96781.28
2023-05-10T12:56:10.338Z,96769.50
2023-05-10T13:01:04.215Z,96760.03
2023-05-10T13:05:57.623Z,96773.13
2023-05-10T13:10:52.427Z,96769.38
2023-05-10T13:15:45.747Z,96772.84
2023-05-10T13:20:39.539Z,96765.94
2023-05-10T13:25:32.876Z,96761.44
2023-05-10T13:30:27.618Z,96757.78
2023-05-10T13:35:21.099Z,96758.84
2023-05-10T13:40:16.116Z,96760.34
2023-05-10T13:45:10.849Z,96752.75
2023-05-10T13:50:06.171Z,96756.84
2023-05-10T13:54:59.515Z,96751.03
2023-05-10T13:59:54.040Z,96748.03
2023-05-10T14:04:48.109Z,96745.56
2023-05-10T14:09:42.845Z,96747.72
2023-05-10T14:14:36.259Z,96738.38
2023-05-10T14:19:31.741Z,96749.13
2023-05-10T14:24:25.085Z,96746.19
2023-05-10T14:29:19.815Z,96737.25
2023-05-10T14:34:13.237Z,96742.66
2023-05-10T14:39:07.611Z,96737.00
2023-05-10T14:44:00.993Z,96740.38
2023-05-10T14:48:55.650Z,96739.75
2023-05-10T14:53:48.924Z,96733.34
2023-05-10T14:58:42.264Z,96741.25
2023-05-10T15:03:35.670Z,96739.09
2023-05-10T15:08:30.889Z,96748.50
2023-05-10T15:13:24.265Z,96747.31
2023-05-10T15:18:17.895Z,96742.72
2023-05-10T15:23:11.386Z,96733.97
2023-05-10T15:28:06.766Z,96745.38
2023-05-10T15:33:00.206Z,96744.03
2023-05-10T15:37:53.558Z,96756.25
2023-05-10T15:42:46.842Z,96755.13
2023-05-10T15:47:41.562Z,96751.16
2023-05-10T15:52:34.897Z,96759.25
2023-05-10T15:57:28.275Z,96765.44
2023-05-10T16:02:22.627Z,96760.28
2023-05-10T16:07:18.700Z,96762.06
2023-05-10T16:12:12.196Z,96763.09
2023-05-10T16:17:05.898Z,96769.00
2023-05-10T16:21:59.429Z,96762.06
2023-05-10T16:26:54.324Z,96780.63
2023-05-10T16:31:47.591Z,96778.56
2023-05-10T16:36:41.164Z,96779.38
2023-05-10T16:41:35.124Z,96790.06
2023-05-10T16:46:29.803Z,96787.31
2023-05-10T16:51:23.147Z,96787.88
2023-05-10T16:56:17.783Z,96781.66
2023-05-10T17:01:11.182Z,96786.00
2023-05-10T17:06:08.157Z,96786.97
2023-05-10T17:11:03.915Z,96795.06
2023-05-10T17:15:57.663Z,96786.38
2023-05-10T17:20:52.377Z,96784.94
2023-05-10T17:25:47.066Z,96789.47
2023-05-10T17:30:40.632Z,96792.94
2023-05-10T17:35:34.216Z,96784.56
2023-05-10T17:40:27.637Z,96789.81
2023-05-10T17:45:22.355Z,96796.38
2023-05-10T17:50:15.799Z,96795.81
2023-05-10T17:55:10.155Z,96798.84
2023-05-10T18:00:06.243Z,96799.28
2023-05-10T18:05:01.619Z,96804.38
2023-05-10T18:09:55.028Z,96797.75
2023-05-10T18:14:48.324Z,96805.00
2023-05-10T18:19:41.902Z,96805.19
2023-05-10T18:24:40.281Z,96811.09
2023-05-10T18:29:33.770Z,96823.13
2023-05-10T18:34:27.140Z,96829.16
2023-05-10T18:39:20.710Z,96857.06
2023-05-10T18:44:27.543Z,96866.78
2023-05-10T18:49:20.919Z,96861.94
2023-05-10T18:54:16.108Z,96846.81
2023-05-10T18:59:09.328Z,96834.31
2023-05-10T19:04:04.056Z,96829.03
2023-05-10T19:08:57.350Z,96819.63
2023-05-10T19:13:50.653Z,96823.50
2023-05-10T19:18:45.256Z,96834.13
2023-05-10T19:23:41.734Z,96826.25
2023-05-10T19:28:36.683Z,96830.84
2023-05-10T19:33:30.238Z,96839.69
2023-05-10T19:38:24.196Z,96838.13
2023-05-10T19:43:19.919Z,96842.47
2023-05-10T19:48:13.377Z,96852.00
2023-05-10T19:53:06.819Z,96845.19
2023-05-10T19:58:01.628Z,96844.94
2023-05-10T20:02:56.896Z,96838.28
2023-05-10T20:07:50.621Z,96841.31
2023-05-10T20:12:49.648Z,96850.50
2023-05-10T20:17:43.004Z,96863.66
2023-05-10T20:22:37.705Z,96866.84
2023-05-10T20:27:30.970Z,96870.88
2023-05-10T20:32:24.490Z,96857.41
2023-05-10T20:37:18.267Z,96872.03
2023-05-10T20:42:12.981Z,96867.50
2023-05-10T20:47:06.602Z,96860.13
2023-05-10T20:52:00.195Z,96874.19
2023-05-10T20:56:54.138Z,96860.03
2023-05-10T21:01:48.850Z,96855.47
2023-05-10T21:06:43.219Z,96854.88
2023-05-10T21:11:36.631Z,96846.72
2023-05-10T21:16:29.890Z,96856.94
2023-05-10T21:21:24.619Z,96854.84
2023-05-10T21:26:18.420Z,96842.91
2023-05-10T21:31:11.895Z,96828.28
2023-05-10T21:36:06.261Z,96832.97
2023-05-10T21:41:00.985Z,96831.31
2023-05-10T21:45:54.366Z,96841.78
2023-05-10T21:50:49.067Z,96836.69
2023-05-10T21:55:42.343Z,96839.34
2023-05-10T22:00:36.997Z,96831.25
2023-05-10T22:05:30.421Z,96833.31
2023-05-10T22:10:23.727Z,96827.22
2023-05-10T22:15:17.230Z,96828.88
2023-05-10T22:20:12.665Z,96836.53
2023-05-10T22:25:07.970Z,96840.34
2023-05-10T22:30:01.599Z,96841.78
2023-05-10T22:34:54.980Z,96848.84
2023-05-10T22:39:50.625Z,96848.13
2023-05-10T22:44:44.428Z,96847.81
2023-05-10T22:49:37.898Z,96847.50
2023-05-10T22:54:31.216Z,96852.94
2023-05-10T22:59:25.971Z,96844.56
2023-05-10T23:04:19.232Z,96855.94
2023-05-10T23:09:12.507Z,96851.19
2023-05-10T23:14:05.871Z,96851.53
2023-05-10T23:19:00.556Z,96859.19
2023-05-10T23:23:54.867Z,96853.75
2023-05-10T23:28:48.306Z,96851.25
2023-05-10T23:33:41.620Z,96848.97
2023-05-10T23:38:36.309Z,96854.16
2023-05-10T23:43:29.710Z,96853.25
2023-05-10T23:48:24.884Z,96852.31
2023-05-10T23:53:18.395Z,96855.63
2023-05-10T23:58:13.017Z,96852.41
